createdAt,value
2018-03-26T18:31:51.896Z,37.68
2018-03-26T18:34:20.469Z,37.51
2018-03-26T18:36:49.805Z,38.63
2018-03-26T18:39:18.428Z,38.88
2018-03-26T18:41:47.033Z,40.95
2018-03-26T18:44:16.380Z,41.63
2018-03-26T18:46:45.001Z,40.40
2018-03-26T18:49:13.568Z,39.09
2018-03-26T18:51:42.145Z,39.58
2018-03-26T18:54:11.589Z,40.55
2018-03-26T18:56:40.957Z,40.90
2018-03-26T18:59:09.533Z,41.55
2018-03-26T19:01:38.309Z,41.01
2018-03-26T19:04:06.889Z,40.65
2018-03-26T19:06:35.458Z,40.37
2018-03-26T19:09:04.313Z,40.63
2018-03-26T19:11:33.717Z,42.99
2018-03-26T19:14:02.286Z,42.17
2018-03-26T19:16:30.910Z,43.23
2018-03-26T19:18:59.494Z,41.10
2018-03-26T19:21:28.072Z,43.63
2018-03-26T19:23:56.731Z,43.64
2018-03-26T19:26:25.297Z,45.16
2018-03-26T19:28:53.869Z,43.67
2018-03-26T19:31:23.470Z,44.52
2018-03-26T19:33:52.158Z,43.85
2018-03-26T19:36:20.768Z,42.13
2018-03-26T19:38:49.400Z,40.94
2018-03-26T19:41:18.046Z,40.95
2018-03-26T19:43:47.440Z,40.20
2018-03-26T19:46:16.210Z,37.87
2018-03-26T19:48:44.780Z,39.66
2018-03-26T19:51:13.379Z,38.58
2018-03-26T19:53:42.164Z,38.14
2018-03-26T19:56:10.752Z,38.91
2018-03-26T19:58:39.327Z,37.64
2018-03-26T20:01:07.954Z,39.79
2018-03-26T20:03:37.340Z,40.25
2018-03-26T20:06:05.928Z,38.67
2018-03-26T20:08:35.317Z,37.59
2018-03-26T20:11:03.950Z,37.99
2018-03-26T20:13:32.521Z,37.43
2018-03-26T20:16:01.257Z,39.43
2018-03-26T20:18:29.836Z,39.34
2018-03-26T20:20:58.408Z,38.75
2018-03-26T20:23:27.345Z,40.15
2018-03-26T20:25:57.430Z,38.73
2018-03-26T20:28:26.013Z,39.47
2018-03-26T20:30:54.785Z,37.58
2018-03-26T20:33:23.353Z,36.43
2018-03-26T20:35:51.932Z,38.06
2018-03-26T20:38:20.958Z,39.97
2018-03-26T20:40:49.513Z,39.34
2018-03-26T20:43:18.085Z,38.78
2018-03-26T20:45:46.710Z,37.95
2018-03-26T20:48:15.278Z,38.47
2018-03-26T20:50:43.844Z,38.78
2018-03-26T20:53:12.473Z,39.40
2018-03-26T20:55:41.045Z,37.34
2018-03-26T20:58:09.612Z,37.92
2018-03-26T21:00:38.415Z,37.72
2018-03-26T21:03:07.001Z,37.44
2018-03-26T21:05:35.568Z,37.22
2018-03-26T21:08:04.240Z,37.10
2018-03-26T21:10:33.544Z,37.13
2018-03-26T21:13:02.128Z,35.84
2018-03-26T21:15:30.896Z,36.66
2018-03-26T21:17:59.464Z,37.97
2018-03-26T21:20:28.801Z,36.55
2018-03-26T21:22:57.423Z,36.72
2018-03-26T21:25:25.996Z,38.12
2018-03-26T21:27:54.564Z,37.95
2018-03-26T21:30:23.188Z,39.82
2018-03-26T21:32:51.757Z,37.48
2018-03-26T21:35:20.328Z,40.86
2018-03-26T21:37:48.941Z,39.97
2018-03-26T21:40:17.517Z,37.69
2018-03-26T21:42:46.084Z,39.01
2018-03-26T21:45:14.801Z,39.00
2018-03-26T21:47:44.138Z,39.24
2018-03-26T21:50:12.748Z,39.63
2018-03-26T21:52:41.368Z,39.77
2018-03-26T21:55:09.934Z,40.01
2018-03-26T21:57:38.508Z,39.19
2018-03-26T22:00:21.214Z,40.41
2018-03-26T22:02:49.829Z,38.51
2018-03-26T22:05:19.926Z,42.29
2018-03-26T22:07:48.808Z,41.93
2018-03-26T22:10:17.384Z,41.82
2018-03-26T22:12:45.974Z,43.01
2018-03-26T22:15:14.693Z,43.25
2018-03-26T22:17:43.252Z,45.07
2018-03-26T22:20:11.834Z,43.90
2018-03-26T22:22:40.532Z,44.79
2018-03-26T22:25:09.144Z,41.93
2018-03-26T22:27:38.476Z,41.72
2018-03-26T22:30:07.497Z,41.61
2018-03-26T22:32:36.060Z,42.97
2018-03-26T22:35:04.637Z,42.64
2018-03-26T22:37:33.646Z,42.06
2018-03-26T22:40:02.294Z,40.72
2018-03-26T22:42:30.856Z,40.69
2018-03-26T22:45:00.236Z,39.98
2018-03-26T22:47:28.807Z,38.54
2018-03-26T22:49:57.368Z,39.37
2018-03-26T22:52:26.121Z,38.13
2018-03-26T22:54:55.452Z,38.54
2018-03-26T22:57:24.012Z,39.26
2018-03-26T22:59:52.642Z,38.76
2018-03-26T23:02:21.229Z,39.49
2018-03-26T23:04:49.793Z,40.24
2018-03-26T23:07:18.400Z,38.47
2018-03-26T23:09:46.984Z,39.67
2018-03-26T23:12:16.320Z,38.70
2018-03-26T23:14:45.692Z,37.79
2018-03-26T23:17:14.272Z,37.95
2018-03-26T23:19:42.862Z,37.56
2018-03-26T23:22:11.581Z,39.52
2018-03-26T23:24:40.908Z,38.54
2018-03-26T23:27:09.480Z,39.69
2018-03-26T23:29:38.396Z,38.64
2018-03-26T23:32:06.952Z,37.78
2018-03-26T23:34:35.513Z,39.87
2018-03-26T23:37:05.185Z,39.88
2018-03-26T23:39:33.748Z,42.00
2018-03-26T23:42:02.306Z,42.56
2018-03-26T23:44:31.745Z,43.69
2018-03-26T23:47:00.304Z,44.22
2018-03-26T23:49:28.862Z,44.66
2018-03-26T23:51:58.341Z,44.22
2018-03-26T23:54:27.710Z,41.80
2018-03-26T23:56:56.280Z,41.92
2018-03-26T23:59:25.165Z,41.71
